Time;durP1;ratioP1;P1;durP2;ratioP2;P2;SDS_P1;SDS_P2;PMS_P1;PMS_P2;Temp;Humidity;BMP_temperature;BMP_pressure;BME280_temperature;BME280_humidity;BME280_pressure;Samples;Min_cycle;Max_cycle;Signal;HPM_P1;HPM_P2
2021/04/30 00:04:18;;;;;;;1.70;1.60;;;20.70;46.00;;;;;;10344504;28;20215;-18
2021/04/30 00:09:40;;;;;;;1.90;1.80;;;20.60;46.20;;;;;;10344896;28;20645;-17
2021/04/30 00:15:02;;;;;;;2.10;1.90;;;20.70;46.10;;;;;;10344524;28;20202;-18
2021/04/30 00:20:24;;;;;;;2.07;1.80;;;20.80;46.20;;;;;;10343854;28;20742;-14
2021/04/30 00:25:46;;;;;;;1.90;1.80;;;20.60;46.20;;;;;;10344997;28;20194;-18
2021/04/30 00:31:08;;;;;;;2.30;2.03;;;20.70;46.20;;;;;;10341568;28;20590;-16
2021/04/30 00:36:32;;;;;;;1.97;1.83;;;20.70;46.20;;;;;;10348693;28;20234;-18
2021/04/30 00:41:54;;;;;;;2.20;1.77;;;20.70;46.00;;;;;;10344549;28;20269;-15
2021/04/30 00:47:26;;;;;;;2.30;2.10;;;20.60;46.00;;;;;;10341545;28;20222;-15
2021/04/30 00:52:49;;;;;;;1.90;1.80;;;20.70;45.90;;;;;;10346815;28;20202;-18
2021/04/30 00:58:11;;;;;;;2.70;1.90;;;20.60;46.00;;;;;;10353136;28;20230;-17
2021/04/30 01:03:33;;;;;;;2.40;2.20;;;20.70;46.10;;;;;;10349530;28;20697;-17
2021/04/30 01:08:55;;;;;;;2.67;2.27;;;20.70;46.00;;;;;;10349010;28;20285;-15
2021/04/30 01:14:17;;;;;;;1.87;1.70;;;20.70;45.90;;;;;;10349353;28;20203;-18
2021/04/30 01:19:38;;;;;;;2.77;1.80;;;20.60;45.80;;;;;;10349874;28;20219;-17
2021/04/30 01:25:01;;;;;;;2.90;2.20;;;20.70;45.80;;;;;;10349935;28;20215;-14
2021/04/30 01:30:25;;;;;;;2.83;2.07;;;20.60;45.90;;;;;;10348653;28;20219;-16
2021/04/30 01:35:47;;;;;;;2.83;2.47;;;20.50;46.10;;;;;;10348950;28;20689;-15
2021/04/30 01:41:09;;;;;;;2.70;2.20;;;20.60;46.40;;;;;;10348223;28;20281;-15
2021/04/30 01:46:31;;;;;;;2.40;2.20;;;20.60;46.20;;;;;;10346270;28;20226;-17
2021/04/30 01:51:53;;;;;;;2.40;2.20;;;20.60;46.30;;;;;;10346136;28;20203;-18
2021/04/30 01:57:15;;;;;;;2.93;1.93;;;20.50;46.00;;;;;;10350266;28;20221;-15
2021/04/30 02:02:45;;;;;;;3.13;2.10;;;20.50;46.10;;;;;;10348382;28;20219;-17
2021/04/30 02:08:08;;;;;;;2.57;2.20;;;20.50;46.40;;;;;;10348431;28;20438;-17
2021/04/30 02:13:31;;;;;;;2.40;2.20;;;20.60;46.90;;;;;;10347196;28;20198;-17
2021/04/30 02:18:52;;;;;;;2.73;2.27;;;20.50;46.40;;;;;;10346854;28;20790;-18
2021/04/30 02:24:14;;;;;;;3.27;2.70;;;20.50;46.20;;;;;;10346717;28;20219;-20
2021/04/30 02:29:36;;;;;;;2.83;2.30;;;20.50;46.10;;;;;;10344600;28;20242;-16
2021/04/30 02:34:58;;;;;;;2.23;2.10;;;20.50;46.40;;;;;;10345706;28;20218;-18
2021/04/30 02:40:23;;;;;;;3.00;2.60;;;20.50;46.20;;;;;;10339608;28;20227;-15
2021/04/30 02:45:51;;;;;;;3.00;2.53;;;20.50;46.00;;;;;;10342152;28;20206;-18
2021/04/30 02:51:14;;;;;;;3.60;2.33;;;20.50;46.30;;;;;;10347725;28;20203;-14
2021/04/30 02:56:36;;;;;;;2.73;2.53;;;20.40;46.00;;;;;;10346697;28;20226;-17
2021/04/30 03:01:58;;;;;;;2.87;2.57;;;20.50;46.20;;;;;;10344430;28;20237;-18
2021/04/30 03:07:20;;;;;;;2.80;2.57;;;20.50;46.20;;;;;;10342146;28;20215;-15
2021/04/30 03:12:41;;;;;;;3.27;3.03;;;20.40;46.10;;;;;;10336208;28;20195;-17
2021/04/30 03:18:04;;;;;;;2.60;2.40;;;20.40;46.20;;;;;;10339112;28;20499;-15
2021/04/30 03:23:26;;;;;;;2.70;2.50;;;20.40;46.30;;;;;;10341202;28;20222;-19
2021/04/30 03:28:47;;;;;;;2.40;2.20;;;20.40;46.00;;;;;;10345180;28;20782;-14
2021/04/30 03:34:10;;;;;;;2.70;2.50;;;20.40;46.10;;;;;;10343994;28;20198;-17
2021/04/30 03:39:32;;;;;;;2.60;2.40;;;20.40;46.20;;;;;;10343489;28;20231;-18
2021/04/30 03:44:54;;;;;;;2.63;2.27;;;20.40;46.20;;;;;;10340740;28;20222;-18
2021/04/30 03:50:16;;;;;;;2.73;2.47;;;20.40;46.10;;;;;;10334848;28;20222;-16
2021/04/30 03:55:38;;;;;;;2.60;2.40;;;20.50;46.10;;;;;;10337294;28;20199;-15
2021/04/30 04:01:00;;;;;;;2.87;2.50;;;20.40;46.20;;;;;;10340155;28;20234;-15
2021/04/30 04:06:22;;;;;;;2.80;2.40;;;20.40;46.30;;;;;;10336972;28;20202;-16
2021/04/30 04:11:45;;;;;;;2.80;2.53;;;20.50;46.60;;;;;;10315635;28;20192;-17
2021/04/30 04:17:06;;;;;;;2.40;2.20;;;20.50;46.30;;;;;;10325263;28;20250;-16
2021/04/30 04:22:29;;;;;;;2.80;2.60;;;20.50;46.20;;;;;;10336625;28;20234;-15
2021/04/30 04:27:51;;;;;;;2.70;2.50;;;20.40;46.50;;;;;;10335344;28;20694;-14
2021/04/30 04:33:12;;;;;;;3.10;2.80;;;20.40;47.20;;;;;;10332485;28;20238;-17
2021/04/30 04:38:35;;;;;;;3.20;2.90;;;20.40;46.50;;;;;;10333908;28;20227;-17
2021/04/30 04:43:56;;;;;;;2.90;2.63;;;20.40;46.50;;;;;;10334215;28;20226;-15
2021/04/30 04:49:18;;;;;;;2.87;2.57;;;20.40;46.30;;;;;;10336160;28;20223;-16
2021/04/30 04:54:40;;;;;;;3.10;2.80;;;20.40;46.60;;;;;;10335972;28;20195;-17
2021/04/30 05:00:02;;;;;;;2.70;2.50;;;20.40;46.20;;;;;;10336521;28;20223;-16
2021/04/30 05:05:24;;;;;;;3.10;2.87;;;20.40;46.30;;;;;;10350221;28;20305;-17
2021/04/30 05:10:46;;;;;;;3.30;2.97;;;20.40;46.40;;;;;;10380478;28;20233;-15
2021/04/30 05:16:08;;;;;;;2.90;2.67;;;20.40;46.50;;;;;;10363746;28;20191;-15
2021/04/30 05:21:30;;;;;;;2.53;2.33;;;20.30;46.50;;;;;;10345980;28;20298;-15
2021/04/30 05:26:53;;;;;;;3.30;3.00;;;20.40;46.40;;;;;;10350930;28;20211;-19
2021/04/30 05:32:16;;;;;;;3.03;2.80;;;20.40;46.60;;;;;;10375601;28;20194;-18
2021/04/30 05:42:52;;;;;;;3.20;2.70;;;20.40;46.70;;;;;;10291489;28;20294;-15
2021/04/30 05:48:14;;;;;;;7.10;6.40;;;20.30;46.60;;;;;;10275404;28;20225;-14
2021/04/30 05:53:35;;;;;;;10.40;9.47;;;20.40;45.70;;;;;;10330508;28;20198;-13
2021/04/30 05:58:58;;;;;;;10.07;9.17;;;20.40;45.80;;;;;;10324153;28;20285;-14
2021/04/30 06:04:20;;;;;;;10.07;9.17;;;20.20;45.80;;;;;;10316112;28;20223;-13
2021/04/30 06:09:41;;;;;;;10.77;9.60;;;20.10;45.80;;;;;;10331705;28;20238;-14
2021/04/30 06:15:05;;;;;;;10.53;9.57;;;20.00;45.70;;;;;;10331035;28;20217;-15
2021/04/30 06:20:27;;;;;;;10.03;9.03;;;19.90;46.00;;;;;;10324438;28;20266;-14
2021/04/30 06:25:49;;;;;;;10.70;9.70;;;19.80;46.40;;;;;;10297123;28;20235;-15
2021/04/30 06:31:11;;;;;;;11.33;10.00;;;19.80;46.50;;;;;;10294216;28;20220;-14
2021/04/30 06:36:35;;;;;;;10.03;9.07;;;19.80;46.60;;;;;;10331248;28;20222;-15
2021/04/30 06:42:01;;;;;;;10.20;9.20;;;19.70;46.80;;;;;;10282618;28;20227;-14
2021/04/30 06:47:24;;;;;;;8.60;7.80;;;19.60;46.30;;;;;;10271544;28;20208;-13
2021/04/30 06:52:45;;;;;;;8.87;8.00;;;19.60;46.20;;;;;;10306514;28;20730;-14
2021/04/30 06:58:07;;;;;;;10.03;8.97;;;19.50;46.40;;;;;;10290974;28;20227;-13
2021/04/30 07:03:30;;;;;;;8.80;7.97;;;19.40;46.70;;;;;;10290303;28;20226;-15
2021/04/30 07:08:53;;;;;;;8.90;8.03;;;19.40;47.00;;;;;;10290648;28;20230;-15
2021/04/30 07:14:14;;;;;;;9.50;8.53;;;19.30;47.20;;;;;;10290365;28;20203;-14
2021/04/30 07:19:37;;;;;;;9.93;8.93;;;19.20;47.30;;;;;;10288679;28;20599;-13
2021/04/30 07:24:59;;;;;;;9.27;8.37;;;19.20;47.70;;;;;;10289205;28;20211;-14
2021/04/30 07:30:20;;;;;;;8.77;7.87;;;19.20;47.50;;;;;;10287954;28;20247;-13
2021/04/30 07:35:43;;;;;;;7.13;6.43;;;19.10;47.80;;;;;;10290013;28;20210;-15
2021/04/30 07:41:04;;;;;;;8.27;6.53;;;19.10;48.10;;;;;;10314085;28;20789;-13
2021/04/30 07:46:26;;;;;;;6.77;6.07;;;19.10;48.20;;;;;;10289186;28;20196;-15
2021/04/30 07:51:48;;;;;;;7.30;5.80;;;19.10;48.00;;;;;;10322568;28;20280;-13
2021/04/30 07:57:10;;;;;;;5.40;4.90;;;19.20;47.80;;;;;;10328053;28;20686;-14
2021/04/30 08:02:32;;;;;;;7.03;5.83;;;19.10;47.10;;;;;;10327694;28;20249;-13
2021/04/30 08:07:55;;;;;;;5.60;4.83;;;19.20;46.70;;;;;;10328376;28;20218;-15
2021/04/30 08:13:16;;;;;;;5.63;5.13;;;19.20;47.10;;;;;;10328318;28;20198;-14
2021/04/30 08:18:38;;;;;;;5.80;4.70;;;19.20;47.00;;;;;;10328631;28;20231;-15
2021/04/30 08:24:01;;;;;;;5.07;4.60;;;19.10;46.90;;;;;;10328348;28;20584;-14
2021/04/30 08:29:22;;;;;;;4.70;3.83;;;19.10;46.60;;;;;;10328292;28;20212;-15
2021/04/30 08:34:44;;;;;;;4.70;4.20;;;19.00;46.70;;;;;;10320758;28;20268;-15
2021/04/30 08:40:07;;;;;;;4.50;3.93;;;19.10;47.30;;;;;;10269312;28;20220;-15
2021/04/30 08:45:29;;;;;;;4.40;4.00;;;19.00;47.40;;;;;;10283998;28;20219;-13
2021/04/30 08:50:53;;;;;;;3.97;3.53;;;19.20;47.60;;;;;;10285825;28;20215;-14
2021/04/30 08:56:17;;;;;;;3.83;3.43;;;19.30;46.90;;;;;;10292880;28;20212;-14
2021/04/30 09:01:39;;;;;;;3.20;2.90;;;19.30;46.90;;;;;;10255837;28;20227;-14
2021/04/30 09:07:13;;;;;;;3.20;2.90;;;19.40;46.70;;;;;;10255066;29;20290;-14
2021/04/30 09:12:35;;;;;;;3.43;2.97;;;19.50;46.10;;;;;;10276747;28;20262;-13
2021/04/30 09:18:15;;;;;;;3.40;3.00;;;19.60;45.80;;;;;;10294100;28;20226;-15
2021/04/30 09:23:39;;;;;;;4.30;2.70;;;19.50;45.90;;;;;;10293827;28;20718;-15
2021/04/30 09:29:04;;;;;;;3.00;2.70;;;19.60;45.80;;;;;;10294746;28;20219;-15
2021/04/30 09:34:28;;;;;;;3.77;2.87;;;19.50;45.50;;;;;;10294708;28;20199;-15
2021/04/30 09:39:52;;;;;;;3.33;2.50;;;19.60;45.20;;;;;;10293739;28;20234;-13
2021/04/30 09:45:15;;;;;;;3.10;2.80;;;19.60;44.70;;;;;;10292370;28;20234;-14
2021/04/30 09:50:38;;;;;;;3.13;2.83;;;19.50;44.60;;;;;;10293485;28;20220;-14
2021/04/30 09:56:02;;;;;;;3.40;2.90;;;19.50;45.20;;;;;;10293504;28;20199;-15
2021/04/30 10:01:25;;;;;;;2.93;2.67;;;19.60;46.10;;;;;;10292529;28;20279;-15
2021/04/30 10:06:54;;;;;;;3.13;2.60;;;19.60;45.40;;;;;;10290557;28;20665;-15
2021/04/30 10:12:24;;;;;;;3.57;2.40;;;19.60;45.60;;;;;;10291702;28;20591;-13
2021/04/30 10:17:47;;;;;;;4.03;2.57;;;19.60;44.80;;;;;;10291478;28;20192;-15
2021/04/30 10:23:14;;;;;;;3.03;2.83;;;19.60;44.80;;;;;;10291538;28;20226;-15
2021/04/30 10:28:37;;;;;;;4.07;2.87;;;19.60;45.00;;;;;;10282528;28;20222;-13
2021/04/30 10:34:02;;;;;;;3.63;3.27;;;19.60;45.10;;;;;;10272424;28;20283;-17
2021/04/30 10:39:27;;;;;;;4.70;3.67;;;19.50;45.30;;;;;;10287540;28;20238;-14
2021/04/30 10:44:59;;;;;;;4.27;3.77;;;19.50;45.30;;;;;;10288909;28;20220;-15
2021/04/30 10:50:22;;;;;;;4.07;3.60;;;19.40;45.70;;;;;;10290573;28;20703;-14
2021/04/30 10:55:46;;;;;;;4.13;3.73;;;19.40;45.60;;;;;;10290397;28;20671;-15
2021/04/30 11:01:26;;;;;;;3.90;3.50;;;19.40;45.40;;;;;;10289490;28;20257;-15
2021/04/30 11:06:52;;;;;;;3.80;3.50;;;19.30;45.80;;;;;;10289548;28;20622;-15
2021/04/30 11:12:24;;;;;;;4.47;3.37;;;19.20;46.10;;;;;;10288986;28;20220;-15
2021/04/30 11:17:46;;;;;;;4.07;3.17;;;19.20;45.90;;;;;;10288656;28;20215;-15
2021/04/30 11:23:13;;;;;;;3.50;3.20;;;19.10;44.60;;;;;;10282461;28;20226;-15
2021/04/30 11:29:10;;;;;;;4.57;4.00;;;19.10;45.00;;;;;;10289204;28;20223;-13
2021/04/30 11:34:31;;;;;;;4.00;3.30;;;19.10;45.20;;;;;;10283766;28;20188;-14
2021/04/30 11:44:57;;;;;;;3.23;2.90;;;19.10;45.10;;;;;;10324846;28;20269;-13
2021/04/30 11:50:21;;;;;;;3.13;2.83;;;19.10;45.20;;;;;;10295097;28;20227;-15
2021/04/30 11:55:46;;;;;;;3.90;3.50;;;19.20;45.60;;;;;;10301382;28;20197;-15
2021/04/30 12:01:11;;;;;;;3.27;2.37;;;19.30;45.80;;;;;;10310633;28;20222;-16
2021/04/30 12:06:32;;;;;;;1.50;1.40;;;19.50;45.50;;;;;;10328901;28;20195;-14
2021/04/30 12:11:54;;;;;;;2.83;1.47;;;20.20;44.90;;;;;;10328451;28;20217;-16
2021/04/30 12:17:38;;;;;;;2.63;1.47;;;20.80;44.00;;;;;;10325447;28;20674;-14
2021/04/30 12:23:02;;;;;;;1.63;1.10;;;21.30;43.30;;;;;;10295972;28;20223;-13
2021/04/30 12:28:25;;;;;;;1.30;1.20;;;21.60;42.70;;;;;;10290990;28;20203;-15
2021/04/30 12:33:49;;;;;;;1.30;1.20;;;21.90;42.20;;;;;;10297551;28;20679;-16
2021/04/30 12:39:12;;;;;;;1.80;1.23;;;22.20;42.00;;;;;;10301529;28;20226;-14
2021/04/30 12:44:34;;;;;;;2.80;1.20;;;22.30;41.60;;;;;;10374083;28;20650;-13
2021/04/30 12:49:56;;;;;;;1.83;1.10;;;22.40;41.20;;;;;;10371194;28;20237;-14
2021/04/30 12:55:24;;;;;;;1.30;1.20;;;22.00;42.00;;;;;;10376831;28;20191;-14
2021/04/30 13:01:00;;;;;;;1.60;1.50;;;21.80;42.70;;;;;;10376040;28;20690;-17
2021/04/30 13:06:24;;;;;;;1.33;1.20;;;21.70;42.70;;;;;;10374770;28;20218;-13
2021/04/30 13:11:59;;;;;;;3.00;1.60;;;21.80;42.90;;;;;;10358944;28;20233;-16
2021/04/30 13:17:22;;;;;;;1.53;1.20;;;21.90;42.90;;;;;;10373803;28;20225;-12
2021/04/30 13:22:45;;;;;;;1.60;1.00;;;22.00;42.70;;;;;;10373537;28;20218;-13
2021/04/30 13:28:11;;;;;;;1.40;1.10;;;22.10;42.60;;;;;;10374232;28;20210;-16
2021/04/30 13:33:34;;;;;;;2.70;1.30;;;22.20;42.50;;;;;;10374401;28;20205;-17
2021/04/30 13:39:00;;;;;;;2.20;1.53;;;22.20;42.30;;;;;;10403253;28;20261;-15
2021/04/30 13:44:22;;;;;;;1.70;1.10;;;22.00;42.40;;;;;;10383682;28;20215;-13
2021/04/30 13:49:58;;;;;;;1.93;1.50;;;21.70;43.60;;;;;;10350192;28;20269;-15
2021/04/30 13:55:21;;;;;;;1.80;1.40;;;21.30;44.10;;;;;;10352459;28;20201;-15
2021/04/30 14:00:43;;;;;;;1.70;1.50;;;21.10;44.50;;;;;;10358444;28;20642;-15
2021/04/30 14:06:05;;;;;;;3.83;1.30;;;21.10;44.70;;;;;;10333026;28;20223;-16
2021/04/30 14:11:29;;;;;;;1.20;1.10;;;21.10;44.80;;;;;;10344960;28;20215;-12
2021/04/30 14:16:52;;;;;;;1.40;1.30;;;21.20;44.90;;;;;;10350357;28;20677;-13
2021/04/30 14:22:14;;;;;;;2.50;1.20;;;21.20;44.90;;;;;;10351764;28;20219;-16
2021/04/30 14:27:36;;;;;;;1.10;1.10;;;21.20;44.90;;;;;;10350623;28;20202;-14
2021/04/30 14:32:58;;;;;;;1.63;1.47;;;21.10;45.20;;;;;;10350654;28;20694;-13
2021/04/30 14:38:19;;;;;;;1.60;1.37;;;21.20;45.20;;;;;;10352178;28;20238;-15
2021/04/30 14:43:42;;;;;;;1.30;1.20;;;21.20;45.30;;;;;;10352416;28;20218;-15
2021/04/30 14:49:04;;;;;;;3.03;1.20;;;21.20;45.40;;;;;;10336072;28;20213;-16
2021/04/30 14:54:26;;;;;;;5.80;1.20;;;21.10;45.70;;;;;;10371393;28;20197;-13
2021/04/30 14:59:49;;;;;;;1.57;1.27;;;21.10;46.30;;;;;;10371904;28;20827;-15
2021/04/30 15:05:13;;;;;;;1.50;1.40;;;21.00;46.30;;;;;;10369637;28;20218;-13
2021/04/30 15:10:35;;;;;;;2.87;1.10;;;20.80;46.40;;;;;;10378774;28;20221;-13
2021/04/30 15:15:58;;;;;;;1.63;1.10;;;20.80;46.60;;;;;;10369058;28;20202;-14
2021/04/30 15:21:20;;;;;;;2.80;1.10;;;20.70;46.60;;;;;;10369986;28;20215;-15
2021/04/30 15:26:41;;;;;;;2.90;1.87;;;20.70;46.80;;;;;;10370790;28;20678;-14
2021/04/30 15:32:04;;;;;;;1.37;1.23;;;20.70;46.80;;;;;;10368764;28;20225;-15
2021/04/30 15:37:26;;;;;;;6.03;1.20;;;20.70;46.70;;;;;;10368657;28;20615;-14
2021/04/30 15:42:48;;;;;;;3.50;1.30;;;20.90;46.60;;;;;;10368315;28;20716;-13
2021/04/30 15:48:10;;;;;;;1.50;1.07;;;21.00;46.70;;;;;;10369480;28;20202;-16
2021/04/30 15:53:32;;;;;;;1.63;1.20;;;21.10;46.70;;;;;;10368354;28;20198;-17
2021/04/30 15:58:53;;;;;;;2.38;1.30;;;21.10;46.90;;;;;;10368022;28;20442;-17
2021/04/30 16:04:16;;;;;;;1.63;1.13;;;21.50;45.60;;;;;;10366908;28;20593;-14
2021/04/30 16:09:37;;;;;;;1.30;1.10;;;21.20;46.40;;;;;;10368963;28;20226;-14
2021/04/30 16:14:59;;;;;;;2.90;1.30;;;21.10;46.70;;;;;;10368319;28;20187;-14
2021/04/30 16:20:22;;;;;;;1.67;1.00;;;21.00;46.90;;;;;;10368039;28;20241;-13
2021/04/30 16:25:44;;;;;;;5.17;1.30;;;21.10;46.80;;;;;;10368521;28;20218;-15
2021/04/30 16:31:08;;;;;;;1.93;1.33;;;21.10;46.90;;;;;;10368066;28;20218;-16
2021/04/30 16:36:31;;;;;;;1.47;1.27;;;21.10;47.00;;;;;;10367930;28;20194;-13
2021/04/30 16:41:52;;;;;;;2.97;1.20;;;21.00;47.10;;;;;;10368243;28;20250;-14
2021/04/30 16:47:14;;;;;;;1.70;1.20;;;21.00;47.20;;;;;;10347932;28;20207;-17
2021/04/30 16:52:37;;;;;;;5.13;1.20;;;20.90;47.30;;;;;;10327584;28;20219;-13
2021/04/30 16:57:59;;;;;;;2.67;1.30;;;21.00;47.00;;;;;;10391887;28;20212;-15
2021/04/30 17:03:20;;;;;;;3.33;1.23;;;21.10;46.50;;;;;;10393724;28;20218;-13
2021/04/30 17:08:43;;;;;;;1.93;1.40;;;21.10;46.50;;;;;;10355370;28;20227;-16
2021/04/30 17:14:05;;;;;;;3.47;1.40;;;21.20;46.30;;;;;;10329287;28;20191;-15
2021/04/30 17:19:26;;;;;;;2.20;1.37;;;21.10;46.30;;;;;;10335413;28;20269;-16
2021/04/30 17:24:53;;;;;;;1.57;1.20;;;21.10;46.40;;;;;;10337641;28;20681;-15
2021/04/30 17:30:16;;;;;;;10.33;1.50;;;21.10;46.60;;;;;;10334365;28;20219;-17
2021/04/30 17:35:37;;;;;;;3.73;1.33;;;21.10;46.80;;;;;;10363504;28;20206;-16
2021/04/30 17:41:00;;;;;;;2.50;1.37;;;21.50;46.10;;;;;;10377313;23;20226;-19
2021/04/30 17:46:22;;;;;;;1.20;1.10;;;21.90;45.10;;;;;;10351616;28;20269;-14
2021/04/30 17:51:44;;;;;;;1.60;1.10;;;22.30;44.20;;;;;;10352393;28;20227;-16
2021/04/30 17:57:06;;;;;;;1.87;1.20;;;22.60;43.60;;;;;;10343552;28;20206;-15
2021/04/30 18:02:28;;;;;;;1.90;1.23;;;22.70;43.40;;;;;;10342690;28;20215;-18
2021/04/30 18:07:50;;;;;;;1.40;1.30;;;22.70;43.40;;;;;;10345533;28;20425;-16
2021/04/30 18:13:12;;;;;;;1.17;1.07;;;23.10;42.50;;;;;;10306549;28;20220;-15
2021/04/30 18:18:34;;;;;;;1.33;1.23;;;22.50;42.90;;;;;;10306109;28;20618;-17
2021/04/30 18:23:55;;;;;;;1.53;1.23;;;21.80;45.20;;;;;;10309163;28;20615;-17
2021/04/30 18:29:18;;;;;;;2.27;1.23;;;21.50;45.90;;;;;;10308515;28;20643;-12
2021/04/30 18:34:39;;;;;;;2.87;1.30;;;21.20;47.40;;;;;;10319991;28;20199;-19
2021/04/30 18:40:01;;;;;;;1.50;1.37;;;21.10;47.10;;;;;;10320641;28;20238;-13
2021/04/30 18:45:23;;;;;;;2.60;1.33;;;21.00;47.20;;;;;;10313821;28;20223;-17
2021/04/30 18:50:45;;;;;;;4.00;1.50;;;21.00;47.10;;;;;;10308887;28;20219;-17
2021/04/30 18:56:07;;;;;;;1.50;1.40;;;21.00;47.30;;;;;;10319036;28;20659;-15
2021/04/30 19:01:29;;;;;;;3.00;1.70;;;21.00;47.20;;;;;;10335349;28;20227;-15
2021/04/30 19:06:52;;;;;;;2.50;1.70;;;21.00;47.30;;;;;;10341491;28;20219;-15
2021/04/30 19:12:13;;;;;;;5.47;1.40;;;21.00;47.30;;;;;;10344164;28;20282;-18
2021/04/30 19:17:36;;;;;;;1.87;1.33;;;20.90;47.30;;;;;;10339023;28;20194;-17
2021/04/30 19:22:58;;;;;;;2.90;1.47;;;20.80;47.50;;;;;;10336916;28;20215;-15
2021/04/30 19:28:20;;;;;;;1.67;1.57;;;20.90;47.20;;;;;;10342744;28;20206;-20
2021/04/30 19:33:42;;;;;;;1.80;1.70;;;20.90;47.20;;;;;;10344206;28;20219;-16
2021/04/30 19:39:05;;;;;;;2.13;1.50;;;20.80;47.40;;;;;;10342486;28;20575;-15
2021/04/30 19:44:26;;;;;;;3.10;1.47;;;20.80;47.40;;;;;;10359185;28;20226;-20
2021/04/30 19:49:49;;;;;;;3.77;1.90;;;20.70;47.70;;;;;;10343542;28;20690;-16
2021/04/30 19:55:12;;;;;;;1.77;1.67;;;20.60;47.70;;;;;;10338985;28;20197;-17
2021/04/30 20:00:34;;;;;;;1.60;1.50;;;20.60;47.70;;;;;;10364796;28;20237;-17
2021/04/30 20:05:56;;;;;;;1.53;1.43;;;20.60;47.80;;;;;;10381348;28;20454;-15
2021/04/30 20:11:18;;;;;;;1.60;1.50;;;20.60;47.90;;;;;;10382244;28;20238;-19
2021/04/30 20:16:40;;;;;;;2.00;1.47;;;20.60;47.90;;;;;;10381609;28;20597;-18
2021/04/30 20:22:02;;;;;;;2.40;1.60;;;20.50;47.90;;;;;;10343958;28;20245;-17
2021/04/30 20:27:24;;;;;;;2.10;1.90;;;20.50;47.90;;;;;;10340891;28;20226;-16
2021/04/30 20:32:46;;;;;;;1.77;1.60;;;20.60;47.80;;;;;;10338350;28;20226;-15
2021/04/30 20:38:08;;;;;;;1.53;1.43;;;20.50;48.00;;;;;;10341686;28;20203;-17
2021/04/30 20:43:30;;;;;;;2.00;1.63;;;20.50;47.90;;;;;;10341668;28;20793;-15
2021/04/30 20:48:52;;;;;;;1.93;1.77;;;20.50;48.00;;;;;;10338595;28;20199;-19
2021/04/30 20:54:14;;;;;;;1.80;1.50;;;20.40;48.00;;;;;;10345297;28;20195;-18
2021/04/30 20:59:36;;;;;;;2.23;1.67;;;20.40;48.20;;;;;;10305195;28;20237;-18
2021/04/30 21:04:57;;;;;;;3.50;1.90;;;20.40;48.10;;;;;;10302966;28;20211;-15
2021/04/30 21:10:28;;;;;;;2.37;1.70;;;20.40;47.90;;;;;;10324173;28;20661;-18
2021/04/30 21:15:50;;;;;;;2.27;2.07;;;20.40;48.10;;;;;;10328968;28;20645;-16
2021/04/30 21:21:13;;;;;;;1.83;1.67;;;20.40;48.20;;;;;;10326148;28;20223;-15
2021/04/30 21:26:35;;;;;;;2.70;1.97;;;20.40;48.30;;;;;;10321439;28;20220;-19
2021/04/30 21:31:57;;;;;;;1.80;1.70;;;20.40;48.00;;;;;;10333602;28;20252;-17
2021/04/30 21:37:18;;;;;;;1.97;1.70;;;20.40;48.20;;;;;;10346044;28;20202;-16
2021/04/30 21:42:41;;;;;;;2.20;1.80;;;20.40;48.00;;;;;;10325069;28;564385;-15
2021/04/30 21:48:03;;;;;;;2.10;1.90;;;20.30;48.10;;;;;;10347685;28;20198;-15
2021/04/30 21:53:25;;;;;;;2.83;1.80;;;20.40;47.90;;;;;;10348111;28;20222;-18
2021/04/30 21:58:47;;;;;;;2.80;1.90;;;20.40;48.10;;;;;;10337160;28;20265;-19
2021/04/30 22:04:10;;;;;;;1.83;1.73;;;20.30;47.90;;;;;;10332694;28;20219;-17
2021/04/30 22:09:34;;;;;;;2.23;2.00;;;20.40;47.90;;;;;;10332703;28;20220;-16
2021/04/30 22:14:57;;;;;;;1.73;1.63;;;20.30;47.80;;;;;;10319470;28;20199;-19
2021/04/30 22:20:22;;;;;;;1.87;1.67;;;20.30;48.00;;;;;;10320081;28;20223;-15
2021/04/30 22:25:43;;;;;;;2.33;2.13;;;20.30;48.00;;;;;;10348242;28;20223;-16
2021/04/30 22:31:07;;;;;;;1.93;1.73;;;20.30;47.90;;;;;;10345757;28;20221;-17
2021/04/30 22:36:28;;;;;;;1.83;1.73;;;20.30;48.20;;;;;;10307177;28;20188;-17
2021/04/30 22:41:50;;;;;;;2.07;1.77;;;20.30;48.00;;;;;;10304829;28;20227;-16
2021/04/30 22:47:12;;;;;;;1.83;1.73;;;20.20;47.90;;;;;;10307287;28;20522;-16
2021/04/30 22:52:34;;;;;;;2.33;2.13;;;20.20;48.10;;;;;;10341352;28;20214;-16
2021/04/30 22:57:56;;;;;;;3.20;2.20;;;20.20;48.00;;;;;;10347462;28;20622;-18
2021/04/30 23:03:18;;;;;;;2.07;1.70;;;20.20;47.90;;;;;;10345888;28;20261;-15
2021/04/30 23:08:40;;;;;;;2.30;1.90;;;20.20;47.90;;;;;;10315260;28;20192;-17
2021/04/30 23:14:01;;;;;;;1.70;1.60;;;20.20;48.00;;;;;;10304824;28;20192;-17
2021/04/30 23:19:24;;;;;;;2.10;1.90;;;20.20;48.00;;;;;;10307948;28;20211;-18
2021/04/30 23:24:46;;;;;;;1.93;1.83;;;20.20;47.90;;;;;;10341397;28;20211;-17
2021/04/30 23:30:08;;;;;;;1.77;1.67;;;20.20;48.00;;;;;;10342091;28;20231;-15
2021/04/30 23:35:31;;;;;;;2.17;1.90;;;20.20;47.80;;;;;;10339541;28;20195;-16
2021/04/30 23:40:53;;;;;;;1.90;1.80;;;20.20;47.80;;;;;;10364788;23;20226;-15
2021/04/30 23:46:15;;;;;;;2.00;1.90;;;20.20;48.00;;;;;;10364190;28;20788;-15
2021/04/30 23:51:37;;;;;;;2.00;1.80;;;20.20;47.70;;;;;;10370821;28;20221;-13
2021/04/30 23:56:59;;;;;;;2.23;2.03;;;20.20;47.80;;;;;;10372140;28;20191;-16
